| time (UTC) | temp C | wind direction | speed KPH | gust KPH | rain 1hr cm | rain 24hr cm | rain mn cm | humidity % | barometer mb |
| 20260510163835 | 20 | 88 | 1.6 | 3.2 | 0.00 | 0.03 | 0.03 | 70 | 1010.4 |
| 20260510163332 | 19 | 115 | 1.6 | 3.2 | 0.00 | 0.03 | 0.03 | 72 | 1010.4 |
| 20260510162832 | 19 | 32 | 3.2 | 3.2 | 0.00 | 0.03 | 0.03 | 73 | 1010.5 |
| 20260510162329 | 19 | 34 | 1.6 | 1.6 | 0.00 | 0.03 | 0.03 | 73 | 1010.7 |
| 20260510161825 | 18 | 70 | 1.6 | 1.6 | 0.00 | 0.03 | 0.03 | 73 | 1010.6 |
| 20260510161321 | 19 | 125 | 3.2 | 3.2 | 0.00 | 0.03 | 0.03 | 75 | 1010.6 |
| 20260510160819 | 18 | 186 | 4.8 | 4.8 | 0.00 | 0.03 | 0.03 | 75 | 1010.4 |
| 20260510160315 | 18 | 206 | 6.4 | 8.0 | 0.00 | 0.03 | 0.03 | 77 | 1010.8 |
| 20260510155814 | 17 | 76 | 1.6 | 1.6 | 0.00 | 0.03 | 0.03 | 76 | 1010.6 |
| 20260510155312 | 18 | 79 | 1.6 | 3.2 | 0.00 | 0.03 | 0.03 | 80 | 1010.9 |
| 20260510154807 | 18 | 31 | 1.6 | 3.2 | 0.00 | 0.03 | 0.03 | 79 | 1010.7 |
| 20260510154303 | 17 | 353 | 3.2 | 3.2 | 0.00 | 0.03 | 0.03 | 80 | 1010.7 |
| 20260510153758 | 17 | 217 | 4.8 | 8.0 | 0.00 | 0.03 | 0.03 | 80 | 1010.8 |
| 20260510153254 | 17 | 76 | 1.6 | 1.6 | 0.00 | 0.03 | 0.03 | 82 | 1010.7 |
| 20260510152751 | 16 | 88 | 1.6 | 3.2 | 0.00 | 0.03 | 0.03 | 85 | 1011.2 |
| 20260510152248 | 16 | 199 | 4.8 | 4.8 | 0.00 | 0.03 | 0.03 | 86 | 1011.1 |
| 20260510151744 | 15 | 193 | 3.2 | 4.8 | 0.00 | 0.03 | 0.03 | 87 | 1010.8 |
| 20260510151243 | 15 | 220 | 4.8 | 4.8 | 0.00 | 0.03 | 0.03 | 87 | 1010.9 |
| 20260510150738 | 15 | 206 | 3.2 | 3.2 | 0.00 | 0.03 | 0.03 | 89 | 1010.7 |
| 20260510150234 | 15 | 134 | 3.2 | 3.2 | 0.00 | 0.03 | 0.03 | 92 | 1010.9 |
| 20260510145730 | 14 | 150 | 3.2 | 3.2 | 0.00 | 0.03 | 0.03 | 94 | 1010.9 |
| 20260510145226 | 14 | 28 | 1.6 | 1.6 | 0.18 | 0.03 | 0.03 | 95 | 1010.8 |
| 20260510144723 | 13 | 111 | 1.6 | 1.6 | 0.18 | 0.03 | 0.03 | 97 | 1010.8 |
| 20260510144220 | 13 | 10 | 1.6 | 1.6 | 0.00 | 0.00 | 0.00 | 98 | 1010.9 |
| 20260510143714 | 13 | 44 | 0.0 | 0.0 | 0.00 | 0.00 | 0.00 | 98 | 1011.1 |
| 20260510143211 | 13 | 85 | 1.6 | 1.6 | 0.00 | 0.00 | 0.00 | 99 | 1011.0 |
| 20260510142708 | 13 | 27 | 1.6 | 1.6 | 0.00 | 0.00 | 0.00 | 99 | 1010.9 |
| 20260510142204 | 13 | 77 | 1.6 | 1.6 | 0.00 | 0.00 | 0.00 | 99 | 1010.6 |
| 20260510141701 | 12 | 63 | 0.0 | 0.0 | 0.00 | 0.00 | 0.00 | 99 | 1010.8 |
| 20260510141200 | 12 | 42 | 0.0 | 1.6 | 0.00 | 0.00 | 0.00 | 99 | 1010.8 |
| 20260510140656 | 12 | 73 | 1.6 | 1.6 | 0.00 | 0.00 | 0.00 | 99 | 1010.7 |
| 20260510140155 | 12 | 96 | 1.6 | 3.2 | 0.00 | 0.00 | 0.00 | 99 | 1010.9 |
| 20260510135650 | 12 | 68 | 0.0 | 0.0 | 0.00 | 0.00 | 0.00 | 99 | 1010.5 |
| 20260510135147 | 12 | 69 | 1.6 | 1.6 | 0.00 | 0.00 | 0.00 | 99 | 1010.6 |
| 20260510134644 | 12 | 71 | 0.0 | 0.0 | 0.00 | 0.00 | 0.00 | 99 | 1010.7 |
| 20260510134141 | 12 | 101 | 1.6 | 1.6 | 0.00 | 0.00 | 0.00 | 99 | 1010.6 |
| 20260510133637 | 12 | 209 | 4.8 | 4.8 | 0.00 | 0.00 | 0.00 | 99 | 1010.4 |
| 20260510133132 | 12 | 79 | 0.0 | 0.0 | 0.00 | 0.00 | 0.00 | 99 | 1010.8 |
| 20260510132629 | 12 | 68 | 0.0 | 0.0 | 0.00 | 0.00 | 0.00 | 99 | 1010.8 |
| 20260510132126 | 12 | 95 | 1.6 | 1.6 | 0.00 | 0.00 | 0.00 | 99 | 1010.8 |
| 20260510131624 | 11 | 63 | 0.0 | 0.0 | 0.00 | 0.00 | 0.00 | 99 | 1010.9 |
| 20260510131121 | 11 | 75 | 1.6 | 1.6 | 0.00 | 0.00 | 0.00 | 99 | 1010.7 |
| 20260510130618 | 11 | 227 | 1.6 | 3.2 | 0.00 | 0.00 | 0.00 | 99 | 1010.7 |
| 20260510130115 | 11 | 31 | 1.6 | 1.6 | 0.00 | 0.00 | 0.00 | 99 | 1010.5 |
| 20260510125611 | 11 | 10 | 1.6 | 1.6 | 0.00 | 0.00 | 0.00 | 99 | 1010.5 |
| 20260510125108 | 11 | 169 | 3.2 | 3.2 | 0.00 | 0.00 | 0.00 | 99 | 1010.3 |
| 20260510124604 | 11 | 73 | 1.6 | 1.6 | 0.00 | 0.00 | 0.00 | 99 | 1010.3 |
| 20260510124101 | 11 | 87 | 0.0 | 0.0 | 0.00 | 0.00 | 0.00 | 99 | 1010.3 |
| 20260510123556 | 11 | 45 | 0.0 | 0.0 | 0.00 | 0.00 | 0.00 | 99 | 1010.5 |
| 20260510123053 | 11 | 78 | 1.6 | 1.6 | 0.00 | 0.00 | 0.00 | 99 | 1010.2 |
| 20260510122548 | 11 | 26 | 3.2 | 3.2 | 0.00 | 0.00 | 0.00 | 99 | 1010.3 |
| 20260510122045 | 11 | 68 | 1.6 | 1.6 | 0.00 | 0.00 | 0.00 | 99 | 1010.1 |
| 20260510121543 | 11 | 76 | 1.6 | 1.6 | 0.00 | 0.00 | 0.00 | 99 | 1009.9 |
| 20260510121039 | 11 | 61 | 0.0 | 0.0 | 0.00 | 0.00 | 0.00 | 99 | 1009.9 |
| 20260510120537 | 11 | 69 | 0.0 | 0.0 | 0.00 | 0.00 | 0.00 | 99 | 1009.8 |
| 20260510120032 | 11 | 77 | 1.6 | 3.2 | 0.00 | 0.00 | 0.00 | 99 | 1009.9 |
| 20260510115529 | 11 | 66 | 0.0 | 1.6 | 0.00 | 0.00 | 0.00 | 99 | 1009.9 |
| 20260510115026 | 11 | 62 | 0.0 | 0.0 | 0.00 | 0.00 | 0.00 | 99 | 1009.9 |
| 20260510114522 | 11 | 76 | 1.6 | 1.6 | 0.00 | 0.00 | 0.00 | 99 | 1010.0 |
| 20260510114018 | 11 | 44 | 0.0 | 0.0 | 0.00 | 0.00 | 0.00 | 99 | 1009.9 |
| 20260510113514 | 11 | 84 | 0.0 | 0.0 | 0.00 | 0.00 | 0.00 | 99 | 1010.1 |
| 20260510113012 | 11 | 66 | 0.0 | 0.0 | 0.00 | 0.00 | 0.00 | 99 | 1010.0 |
| 20260510112508 | 11 | 49 | 0.0 | 0.0 | 0.00 | 0.00 | 0.00 | 99 | 1010.0 |
| 20260510112004 | 11 | 49 | 0.0 | 0.0 | 0.00 | 0.00 | 0.00 | 99 | 1010.2 |
| 20260510111501 | 11 | 49 | 0.0 | 0.0 | 0.00 | 0.00 | 0.00 | 99 | 1009.8 |
| 20260510110957 | 10 | 49 | 0.0 | 0.0 | 0.00 | 0.00 | 0.00 | 99 | 1009.6 |
| 20260510110453 | 10 | 50 | 0.0 | 0.0 | 0.00 | 0.00 | 0.00 | 99 | 1009.3 |
| 20260510105949 | 10 | 50 | 0.0 | 0.0 | 0.00 | 0.00 | 0.00 | 99 | 1009.5 |
| 20260510105444 | 10 | 50 | 0.0 | 0.0 | 0.00 | 0.00 | 0.00 | 99 | 1009.2 |
| 20260510104940 | 10 | 52 | 0.0 | 0.0 | 0.00 | 0.00 | 0.00 | 99 | 1009.0 |
| 20260510104437 | 10 | 51 | 0.0 | 0.0 | 0.00 | 0.00 | 0.00 | 99 | 1009.0 |
| 20260510103933 | 10 | 60 | 0.0 | 0.0 | 0.00 | 0.00 | 0.00 | 99 | 1009.3 |
| 20260510103426 | 10 | 60 | 0.0 | 0.0 | 0.00 | 0.00 | 0.00 | 99 | 1009.2 |
| 20260510102926 | 10 | 60 | 0.0 | 0.0 | 0.00 | 0.00 | 0.00 | 99 | 1009.4 |
| 20260510102422 | 10 | 60 | 0.0 | 0.0 | 0.00 | 0.00 | 0.00 | 99 | 1009.3 |
| 20260510101919 | 10 | 59 | 0.0 | 0.0 | 0.00 | 0.00 | 0.00 | 99 | 1009.3 |
| 20260510101417 | 10 | 60 | 0.0 | 0.0 | 0.00 | 0.00 | 0.00 | 99 | 1009.3 |
| 20260510100915 | 10 | 59 | 0.0 | 0.0 | 0.00 | 0.00 | 0.00 | 99 | 1009.4 |
| 20260510100411 | 10 | 59 | 0.0 | 0.0 | 0.00 | 0.00 | 0.00 | 99 | 1009.4 |
| 20260510095908 | 10 | 60 | 0.0 | 0.0 | 0.00 | 0.00 | 0.00 | 99 | 1009.4 |
| 20260510095403 | 10 | 59 | 0.0 | 0.0 | 0.00 | 0.00 | 0.00 | 99 | 1009.2 |
| 20260510094902 | 10 | 59 | 0.0 | 0.0 | 0.00 | 0.00 | 0.00 | 99 | 1009.2 |
| 20260510094357 | 10 | 59 | 0.0 | 0.0 | 0.00 | 0.00 | 0.00 | 99 | 1009.2 |
| 20260510093854 | 10 | 59 | 0.0 | 0.0 | 0.00 | 0.00 | 0.00 | 99 | 1009.2 |
| 20260510093349 | 10 | 59 | 0.0 | 0.0 | 0.00 | 0.00 | 0.00 | 99 | 1009.3 |
| 20260510092846 | 10 | 58 | 0.0 | 0.0 | 0.00 | 0.00 | 0.00 | 99 | 1009.4 |
| 20260510092342 | 10 | 56 | 0.0 | 0.0 | 0.00 | 0.00 | 0.00 | 99 | 1009.4 |
| 20260510091838 | 10 | 56 | 0.0 | 0.0 | 0.00 | 0.00 | 0.00 | 99 | 1009.3 |
| 20260510091335 | 10 | 55 | 0.0 | 0.0 | 0.00 | 0.00 | 0.00 | 99 | 1009.5 |
| 20260510090832 | 10 | 65 | 1.6 | 1.6 | 0.00 | 0.00 | 0.00 | 99 | 1009.5 |
| 20260510090328 | 10 | 54 | 0.0 | 0.0 | 0.00 | 0.00 | 0.00 | 99 | 1009.7 |
| 20260510085824 | 10 | 51 | 0.0 | 0.0 | 0.00 | 0.00 | 0.00 | 99 | 1009.9 |
| 20260510085324 | 10 | 61 | 0.0 | 0.0 | 0.00 | 0.00 | 0.00 | 99 | 1009.7 |
| 20260510084820 | 10 | 50 | 1.6 | 1.6 | 0.00 | 0.00 | 0.00 | 99 | 1009.7 |
| 20260510084317 | 10 | 54 | 0.0 | 0.0 | 0.00 | 0.00 | 0.00 | 99 | 1009.7 |
| 20260510083814 | 10 | 62 | 0.0 | 0.0 | 0.00 | 0.00 | 0.00 | 99 | 1009.5 |
| 20260510083311 | 9 | 38 | 0.0 | 0.0 | 0.00 | 0.00 | 0.00 | 99 | 1009.7 |
| 20260510082806 | 9 | 62 | 0.0 | 0.0 | 0.00 | 0.00 | 0.00 | 99 | 1009.3 |
| 20260510082306 | 9 | 37 | 0.0 | 0.0 | 0.00 | 0.00 | 0.00 | 99 | 1009.7 |
| 20260510081802 | 9 | 63 | 0.0 | 0.0 | 0.00 | 0.00 | 0.00 | 99 | 1009.0 |
| 20260510081258 | 9 | 63 | 0.0 | 0.0 | 0.00 | 0.00 | 0.00 | 99 | 1008.9 |
| 20260510080754 | 9 | 63 | 0.0 | 0.0 | 0.00 | 0.00 | 0.00 | 99 | 1008.8 |
| 20260510080249 | 9 | 63 | 0.0 | 0.0 | 0.00 | 0.00 | 0.00 | 99 | 1008.8 |
| 20260510075747 | 9 | 63 | 0.0 | 0.0 | 0.00 | 0.00 | 0.00 | 99 | 1008.6 |
| 20260510075244 | 9 | 63 | 0.0 | 0.0 | 0.00 | 0.00 | 0.00 | 99 | 1008.7 |
| 20260510074741 | 9 | 63 | 0.0 | 0.0 | 0.00 | 0.00 | 0.00 | 99 | 1008.8 |
| 20260510074238 | 9 | 63 | 0.0 | 0.0 | 0.00 | 0.00 | 0.00 | 99 | 1008.9 |
| 20260510073734 | 9 | 63 | 0.0 | 0.0 | 0.00 | 0.00 | 0.00 | 99 | 1008.5 |
| 20260510073230 | 9 | 63 | 0.0 | 0.0 | 0.00 | 0.00 | 0.00 | 99 | 1008.7 |
| 20260510072726 | 9 | 63 | 0.0 | 0.0 | 0.00 | 0.00 | 0.00 | 99 | 1008.6 |
| 20260510072223 | 9 | 63 | 0.0 | 0.0 | 0.00 | 0.00 | 0.00 | 99 | 1008.5 |
| 20260510071719 | 9 | 63 | 0.0 | 0.0 | 0.00 | 0.00 | 0.00 | 99 | 1008.6 |
| 20260510071216 | 9 | 63 | 0.0 | 0.0 | 0.00 | 0.00 | 0.00 | 99 | 1008.6 |
| 20260510070714 | 9 | 63 | 0.0 | 0.0 | 0.00 | 0.00 | 0.00 | 99 | 1008.6 |
| 20260510070211 | 9 | 63 | 0.0 | 0.0 | 0.00 | 0.00 | 0.00 | 99 | 1008.6 |
| 20260510065706 | 9 | 63 | 0.0 | 0.0 | 0.00 | 0.00 | 0.00 | 99 | 1008.8 |
| 20260510065202 | 9 | 64 | 0.0 | 0.0 | 0.00 | 0.00 | 0.00 | 99 | 1008.7 |
| 20260510064659 | 9 | 64 | 0.0 | 0.0 | 0.00 | 0.00 | 0.00 | 99 | 1008.8 |
| 20260510064156 | 9 | 66 | 0.0 | 0.0 | 0.00 | 0.00 | 0.00 | 99 | 1008.6 |
| 20260510063653 | 9 | 60 | 0.0 | 0.0 | 0.00 | 0.00 | 0.00 | 99 | 1008.8 |
| 20260510063149 | 9 | 60 | 0.0 | 0.0 | 0.00 | 0.00 | 0.00 | 99 | 1008.4 |
| 20260510062646 | 9 | 60 | 0.0 | 0.0 | 0.00 | 0.00 | 0.00 | 99 | 1008.4 |
| 20260510062142 | 9 | 60 | 0.0 | 0.0 | 0.00 | 0.00 | 0.00 | 99 | 1008.5 |
| 20260510061637 | 9 | 60 | 0.0 | 0.0 | 0.00 | 0.00 | 0.00 | 99 | 1008.4 |
| 20260510061135 | 10 | 60 | 0.0 | 0.0 | 0.00 | 0.00 | 0.00 | 99 | 1008.2 |
| 20260510060631 | 10 | 60 | 0.0 | 0.0 | 0.00 | 0.00 | 0.00 | 99 | 1008.4 |
| 20260510060128 | 10 | 60 | 0.0 | 0.0 | 0.00 | 0.00 | 0.00 | 99 | 1008.6 |
| 20260510055624 | 10 | 60 | 0.0 | 0.0 | 0.00 | 0.00 | 0.00 | 99 | 1008.4 |
| 20260510055123 | 10 | 60 | 0.0 | 0.0 | 0.00 | 0.00 | 0.00 | 99 | 1008.4 |
| 20260510054617 | 10 | 60 | 0.0 | 0.0 | 0.00 | 0.00 | 0.00 | 99 | 1008.5 |
| 20260510054113 | 10 | 60 | 0.0 | 0.0 | 0.00 | 0.00 | 0.00 | 99 | 1008.4 |
| 20260510053612 | 10 | 60 | 0.0 | 0.0 | 0.00 | 0.00 | 0.00 | 99 | 1008.5 |
| 20260510053110 | 10 | 60 | 0.0 | 0.0 | 0.00 | 0.00 | 0.00 | 99 | 1008.4 |
| 20260510052605 | 10 | 60 | 0.0 | 0.0 | 0.00 | 0.00 | 0.00 | 99 | 1008.4 |
| 20260510052102 | 10 | 60 | 0.0 | 0.0 | 0.00 | 0.00 | 0.00 | 99 | 1008.4 |
| 20260510051557 | 10 | 60 | 0.0 | 0.0 | 0.00 | 0.00 | 0.00 | 99 | 1008.6 |
| 20260510051054 | 10 | 60 | 0.0 | 0.0 | 0.00 | 0.00 | 0.00 | 99 | 1008.6 |
| 20260510050552 | 10 | 60 | 0.0 | 0.0 | 0.00 | 0.00 | 0.00 | 99 | 1008.6 |
| 20260510050049 | 10 | 60 | 0.0 | 0.0 | 0.00 | 0.00 | 0.00 | 99 | 1008.8 |
| 20260510045546 | 10 | 60 | 0.0 | 0.0 | 0.00 | 0.00 | 0.00 | 99 | 1008.6 |
| 20260510045041 | 10 | 60 | 0.0 | 0.0 | 0.00 | 0.00 | 0.00 | 99 | 1008.8 |
| 20260510044538 | 10 | 60 | 0.0 | 0.0 | 0.00 | 0.00 | 0.00 | 99 | 1008.7 |
| 20260510044036 | 10 | 60 | 0.0 | 0.0 | 0.00 | 0.00 | 0.00 | 99 | 1008.9 |
| 20260510043532 | 10 | 60 | 0.0 | 0.0 | 0.00 | 0.00 | 0.00 | 99 | 1008.8 |
| 20260510043027 | 10 | 60 | 0.0 | 0.0 | 0.00 | 0.00 | 0.00 | 99 | 1008.8 |
| 20260510042521 | 9 | 60 | 0.0 | 0.0 | 0.00 | 0.00 | 0.00 | 99 | 1008.8 |
| 20260510042022 | 9 | 60 | 0.0 | 0.0 | 0.00 | 0.00 | 0.00 | 99 | 1008.9 |
| 20260510041520 | 9 | 60 | 0.0 | 0.0 | 0.00 | 0.00 | 0.00 | 99 | 1008.9 |
| 20260510041017 | 9 | 60 | 0.0 | 0.0 | 0.00 | 0.00 | 0.00 | 99 | 1008.8 |
| 20260510040513 | 9 | 60 | 0.0 | 0.0 | 0.00 | 0.00 | 0.00 | 99 | 1008.6 |
| 20260510040008 | 9 | 60 | 0.0 | 0.0 | 0.00 | 0.20 | 0.20 | 99 | 1008.6 |
| 20260510035506 | 9 | 60 | 0.0 | 0.0 | 0.00 | 0.20 | 0.20 | 99 | 1008.6 |
| 20260510035005 | 8 | 54 | 0.0 | 0.0 | 0.00 | 0.20 | 0.20 | 99 | 1008.5 |
| 20260510034504 | 8 | 55 | 0.0 | 0.0 | 0.00 | 0.20 | 0.20 | 99 | 1008.6 |
| 20260510034000 | 8 | 69 | 0.0 | 0.0 | 0.00 | 0.20 | 0.20 | 98 | 1008.7 |
| 20260510033456 | 8 | 66 | 0.0 | 0.0 | 0.00 | 0.20 | 0.20 | 98 | 1008.6 |
| 20260510032954 | 8 | 66 | 0.0 | 0.0 | 0.00 | 0.20 | 0.20 | 98 | 1008.7 |
| 20260510032450 | 8 | 66 | 0.0 | 0.0 | 0.00 | 0.20 | 0.20 | 98 | 1008.3 |
| 20260510031945 | 8 | 66 | 0.0 | 0.0 | 0.00 | 0.20 | 0.20 | 98 | 1008.4 |
| 20260510031441 | 9 | 66 | 0.0 | 0.0 | 0.00 | 0.20 | 0.20 | 98 | 1008.3 |
| 20260510030936 | 9 | 66 | 0.0 | 0.0 | 0.00 | 0.20 | 0.20 | 98 | 1008.5 |
| 20260510030432 | 9 | 66 | 0.0 | 0.0 | 0.00 | 0.20 | 0.20 | 98 | 1008.4 |
| 20260510025930 | 9 | 66 | 0.0 | 0.0 | 0.00 | 0.20 | 0.20 | 98 | 1008.5 |
| 20260510025427 | 9 | 66 | 0.0 | 0.0 | 0.00 | 0.20 | 0.20 | 98 | 1008.4 |
| 20260510024924 | 9 | 66 | 0.0 | 0.0 | 0.00 | 0.20 | 0.20 | 98 | 1008.3 |
| 20260510024420 | 9 | 66 | 0.0 | 0.0 | 0.00 | 0.20 | 0.20 | 98 | 1008.3 |
| 20260510023916 | 9 | 66 | 0.0 | 0.0 | 0.00 | 0.20 | 0.20 | 98 | 1008.3 |
| 20260510023413 | 10 | 66 | 0.0 | 0.0 | 0.00 | 0.20 | 0.20 | 98 | 1008.4 |
| 20260510022911 | 10 | 66 | 0.0 | 0.0 | 0.00 | 0.20 | 0.20 | 98 | 1008.5 |
| 20260510022409 | 10 | 66 | 0.0 | 0.0 | 0.00 | 0.20 | 0.20 | 98 | 1008.7 |
| 20260510021908 | 10 | 66 | 0.0 | 0.0 | 0.00 | 0.20 | 0.20 | 98 | 1008.5 |
| 20260510021407 | 10 | 66 | 0.0 | 0.0 | 0.00 | 0.20 | 0.20 | 98 | 1008.3 |
| 20260510020903 | 10 | 67 | 0.0 | 0.0 | 0.00 | 0.20 | 0.20 | 98 | 1008.3 |
| 20260510020358 | 10 | 66 | 0.0 | 0.0 | 0.00 | 0.20 | 0.20 | 98 | 1008.4 |
| 20260510015854 | 10 | 66 | 0.0 | 0.0 | 0.00 | 0.20 | 0.20 | 98 | 1008.2 |
| 20260510015350 | 10 | 66 | 0.0 | 0.0 | 0.00 | 0.20 | 0.20 | 98 | 1008.5 |
| 20260510014845 | 10 | 66 | 0.0 | 0.0 | 0.00 | 0.20 | 0.20 | 98 | 1008.3 |
| 20260510014343 | 10 | 66 | 0.0 | 0.0 | 0.00 | 0.20 | 0.20 | 98 | 1008.6 |
| 20260510013839 | 10 | 66 | 0.0 | 0.0 | 0.00 | 0.20 | 0.20 | 98 | 1008.2 |
| 20260510013335 | 10 | 66 | 0.0 | 0.0 | 0.00 | 0.20 | 0.20 | 98 | 1008.2 |
| 20260510012830 | 10 | 66 | 0.0 | 0.0 | 0.00 | 0.20 | 0.20 | 98 | 1008.2 |
| 20260510012329 | 10 | 66 | 0.0 | 0.0 | 0.00 | 0.20 | 0.20 | 97 | 1008.3 |
| 20260510011824 | 10 | 66 | 0.0 | 0.0 | 0.00 | 0.20 | 0.20 | 97 | 1008.2 |
| 20260510011320 | 10 | 66 | 0.0 | 0.0 | 0.00 | 0.20 | 0.20 | 97 | 1008.3 |
| 20260510010817 | 10 | 66 | 0.0 | 0.0 | 0.00 | 0.20 | 0.20 | 97 | 1008.4 |
| 20260510010314 | 10 | 66 | 0.0 | 0.0 | 0.00 | 0.20 | 0.20 | 97 | 1008.2 |
| 20260510005811 | 10 | 66 | 0.0 | 0.0 | 0.00 | 0.20 | 0.20 | 97 | 1007.9 |
| 20260510005307 | 10 | 66 | 0.0 | 0.0 | 0.00 | 0.20 | 0.20 | 97 | 1008.0 |
| 20260510004805 | 10 | 66 | 0.0 | 0.0 | 0.00 | 0.20 | 0.20 | 97 | 1007.8 |
| 20260510004302 | 10 | 66 | 0.0 | 0.0 | 0.00 | 0.20 | 0.20 | 97 | 1007.8 |
| 20260510003759 | 11 | 66 | 0.0 | 0.0 | 0.00 | 0.20 | 0.20 | 97 | 1007.9 |
| 20260510003256 | 11 | 65 | 0.0 | 0.0 | 0.00 | 0.20 | 0.20 | 97 | 1007.7 |
| 20260510002755 | 11 | 65 | 0.0 | 0.0 | 0.00 | 0.20 | 0.20 | 96 | 1007.9 |
| 20260510002253 | 11 | 66 | 0.0 | 0.0 | 0.00 | 0.20 | 0.20 | 96 | 1007.6 |
| 20260510001749 | 11 | 65 | 0.0 | 0.0 | 0.00 | 0.20 | 0.20 | 96 | 1007.7 |
| 20260510001247 | 11 | 66 | 0.0 | 0.0 | 0.00 | 0.20 | 0.20 | 96 | 1007.8 |
| 20260510000743 | 11 | 66 | 0.0 | 0.0 | 0.00 | 0.20 | 0.20 | 96 | 1007.7 |
| 20260510000241 | 11 | 66 | 0.0 | 0.0 | 0.00 | 0.20 | 0.20 | 96 | 1007.7 |
| 20260509235737 | 11 | 66 | 0.0 | 0.0 | 0.00 | 0.20 | 0.20 | 96 | 1007.9 |
| 20260509235234 | 11 | 66 | 0.0 | 0.0 | 0.00 | 0.20 | 0.20 | 96 | 1007.7 |
| 20260509234730 | 11 | 66 | 0.0 | 0.0 | 0.00 | 0.20 | 0.20 | 96 | 1007.8 |
| 20260509234227 | 11 | 66 | 0.0 | 0.0 | 0.00 | 0.20 | 0.20 | 96 | 1007.6 |
| 20260509233725 | 12 | 66 | 0.0 | 0.0 | 0.00 | 0.20 | 0.20 | 96 | 1007.7 |
| 20260509233222 | 12 | 66 | 0.0 | 0.0 | 0.00 | 0.20 | 0.20 | 96 | 1007.6 |
| 20260509232718 | 12 | 66 | 0.0 | 0.0 | 0.00 | 0.20 | 0.20 | 96 | 1007.4 |
| 20260509232216 | 12 | 66 | 0.0 | 0.0 | 0.00 | 0.20 | 0.20 | 95 | 1007.5 |
| 20260509231712 | 12 | 66 | 0.0 | 0.0 | 0.00 | 0.20 | 0.20 | 95 | 1007.1 |
| 20260509231209 | 12 | 65 | 0.0 | 0.0 | 0.00 | 0.20 | 0.20 | 95 | 1007.5 |
| 20260509230707 | 12 | 64 | 0.0 | 0.0 | 0.00 | 0.20 | 0.20 | 95 | 1007.5 |
| 20260509230203 | 12 | 62 | 0.0 | 0.0 | 0.00 | 0.20 | 0.20 | 95 | 1007.6 |
| 20260509225659 | 12 | 62 | 0.0 | 0.0 | 0.00 | 0.20 | 0.20 | 95 | 1007.6 |
| 20260509225154 | 12 | 72 | 0.0 | 0.0 | 0.00 | 0.20 | 0.20 | 95 | 1007.8 |
| 20260509224650 | 12 | 55 | 0.0 | 0.0 | 0.00 | 0.20 | 0.20 | 95 | 1007.9 |
| 20260509224148 | 12 | 55 | 0.0 | 0.0 | 0.00 | 0.20 | 0.20 | 95 | 1007.9 |
| 20260509223644 | 12 | 55 | 0.0 | 0.0 | 0.00 | 0.20 | 0.20 | 95 | 1007.6 |
| 20260509223141 | 12 | 65 | 0.0 | 1.6 | 0.00 | 0.20 | 0.20 | 95 | 1007.4 |
| 20260509222639 | 12 | 53 | 0.0 | 0.0 | 0.00 | 0.20 | 0.20 | 95 | 1007.6 |
| 20260509222134 | 12 | 51 | 0.0 | 0.0 | 0.00 | 0.20 | 0.20 | 95 | 1007.7 |
| 20260509221630 | 12 | 54 | 0.0 | 0.0 | 0.00 | 0.20 | 0.20 | 95 | 1007.9 |
| 20260509221126 | 12 | 63 | 0.0 | 0.0 | 0.00 | 0.20 | 0.20 | 95 | 1007.9 |
| 20260509220622 | 12 | 73 | 1.6 | 1.6 | 0.00 | 0.20 | 0.20 | 94 | 1007.9 |
| 20260509220118 | 12 | 79 | 1.6 | 1.6 | 0.00 | 0.20 | 0.20 | 95 | 1008.2 |
| 20260509215614 | 12 | 61 | 0.0 | 0.0 | 0.00 | 0.20 | 0.20 | 94 | 1008.1 |
| 20260509215111 | 12 | 65 | 0.0 | 0.0 | 0.00 | 0.20 | 0.20 | 94 | 1008.0 |
| 20260509214608 | 12 | 47 | 0.0 | 0.0 | 0.13 | 0.20 | 0.20 | 94 | 1008.0 |
| 20260509214105 | 12 | 47 | 0.0 | 0.0 | 0.00 | 0.18 | 0.18 | 94 | 1007.9 |
| 20260509213601 | 12 | 41 | 0.0 | 0.0 | 0.30 | 0.18 | 0.18 | 93 | 1008.1 |
| 20260509213057 | 12 | 63 | 0.0 | 1.6 | 0.79 | 0.18 | 0.18 | 93 | 1008.0 |
| 20260509212555 | 12 | 66 | 0.0 | 0.0 | 0.61 | 0.13 | 0.13 | 92 | 1008.3 |
| 20260509212052 | 12 | 82 | 1.6 | 1.6 | 0.13 | 0.05 | 0.05 | 91 | 1008.2 |
| 20260509211548 | 12 | 55 | 0.0 | 0.0 | 0.00 | 0.03 | 0.03 | 90 | 1008.3 |
| 20260509211044 | 12 | 54 | 0.0 | 0.0 | 0.18 | 0.03 | 0.03 | 89 | 1008.1 |
| 20260509210541 | 12 | 55 | 0.0 | 1.6 | 0.18 | 0.03 | 0.03 | 88 | 1007.7 |
| 20260509210038 | 13 | 56 | 1.6 | 1.6 | 0.00 | 0.00 | 0.00 | 88 | 1007.7 |
| 20260509205538 | 13 | 51 | 0.0 | 0.0 | 0.00 | 0.00 | 0.00 | 87 | 1008.2 |
| 20260509205033 | 13 | 66 | 0.0 | 0.0 | 0.00 | 0.00 | 0.00 | 87 | 1008.3 |
| 20260509204530 | 13 | 66 | 0.0 | 0.0 | 0.00 | 0.00 | 0.00 | 86 | 1008.0 |
| 20260509204026 | 13 | 50 | 0.0 | 1.6 | 0.00 | 0.00 | 0.00 | 86 | 1008.0 |
| 20260509203522 | 13 | 67 | 0.0 | 0.0 | 0.00 | 0.00 | 0.00 | 87 | 1008.1 |
| 20260509203021 | 13 | 68 | 1.6 | 1.6 | 0.00 | 0.00 | 0.00 | 86 | 1007.6 |
| 20260509202521 | 13 | 46 | 0.0 | 1.6 | 0.00 | 0.00 | 0.00 | 86 | 1007.8 |
| 20260509202017 | 13 | 65 | 0.0 | 0.0 | 0.00 | 0.00 | 0.00 | 86 | 1007.9 |
| 20260509201512 | 13 | 52 | 0.0 | 0.0 | 0.00 | 0.00 | 0.00 | 86 | 1007.9 |
| 20260509201010 | 13 | 41 | 0.0 | 0.0 | 0.00 | 0.00 | 0.00 | 86 | 1007.8 |
| 20260509200510 | 13 | 62 | 0.0 | 0.0 | 0.00 | 0.00 | 0.00 | 86 | 1007.8 |
| 20260509200007 | 13 | 87 | 3.2 | 3.2 | 0.00 | 0.00 | 0.00 | 86 | 1008.2 |
| 20260509195502 | 13 | 60 | 0.0 | 0.0 | 0.00 | 0.00 | 0.00 | 86 | 1008.3 |
| 20260509195001 | 13 | 43 | 1.6 | 1.6 | 0.00 | 0.00 | 0.00 | 85 | 1008.2 |
| 20260509194457 | 13 | 33 | 3.2 | 3.2 | 0.00 | 0.00 | 0.00 | 84 | 1008.2 |
| 20260509193955 | 13 | 38 | 0.0 | 0.0 | 0.00 | 0.00 | 0.00 | 84 | 1008.5 |
| 20260509193454 | 13 | 80 | 1.6 | 1.6 | 0.00 | 0.00 | 0.00 | 83 | 1008.5 |
| 20260509192951 | 13 | 52 | 1.6 | 1.6 | 0.00 | 0.00 | 0.00 | 83 | 1008.6 |
| 20260509192448 | 13 | 47 | 1.6 | 1.6 | 0.00 | 0.00 | 0.00 | 83 | 1008.6 |
| 20260509191942 | 13 | 23 | 1.6 | 3.2 | 0.00 | 0.00 | 0.00 | 82 | 1008.6 |
| 20260509191438 | 14 | 58 | 0.0 | 0.0 | 0.00 | 0.00 | 0.00 | 81 | 1008.5 |
| 20260509190934 | 14 | 36 | 0.0 | 0.0 | 0.00 | 0.00 | 0.00 | 81 | 1008.5 |
| 20260509190431 | 14 | 42 | 0.0 | 0.0 | 0.00 | 0.00 | 0.00 | 81 | 1008.5 |
| 20260509185929 | 14 | 59 | 0.0 | 0.0 | 0.00 | 0.00 | 0.00 | 81 | 1008.5 |
| 20260509185426 | 14 | 68 | 0.0 | 0.0 | 0.00 | 0.00 | 0.00 | 81 | 1008.3 |
| 20260509184923 | 14 | 82 | 3.2 | 3.2 | 0.00 | 0.00 | 0.00 | 81 | 1008.2 |
| 20260509184420 | 14 | 52 | 0.0 | 1.6 | 0.00 | 0.00 | 0.00 | 81 | 1008.3 |
| 20260509183917 | 14 | 42 | 1.6 | 1.6 | 0.00 | 0.00 | 0.00 | 81 | 1008.4 |
| 20260509183411 | 14 | 59 | 0.0 | 0.0 | 0.00 | 0.00 | 0.00 | 82 | 1008.4 |
| 20260509182908 | 14 | 42 | 1.6 | 1.6 | 0.00 | 0.00 | 0.00 | 83 | 1008.6 |
| 20260509182404 | 14 | 29 | 3.2 | 3.2 | 0.00 | 0.00 | 0.00 | 83 | 1008.2 |
| 20260509181902 | 14 | 49 | 0.0 | 0.0 | 0.00 | 0.00 | 0.00 | 83 | 1008.5 |
| 20260509181359 | 15 | 65 | 1.6 | 1.6 | 0.00 | 0.00 | 0.00 | 83 | 1008.5 |
| 20260509180857 | 15 | 65 | 0.0 | 0.0 | 0.00 | 0.00 | 0.00 | 82 | 1008.7 |
| 20260509180352 | 15 | 62 | 1.6 | 1.6 | 0.00 | 0.00 | 0.00 | 81 | 1008.4 |
| 20260509175849 | 15 | 43 | 0.0 | 0.0 | 0.00 | 0.00 | 0.00 | 81 | 1008.5 |
| 20260509175345 | 15 | 39 | 0.0 | 1.6 | 0.00 | 0.00 | 0.00 | 80 | 1008.6 |
| 20260509174841 | 15 | 44 | 1.6 | 1.6 | 0.00 | 0.00 | 0.00 | 79 | 1008.5 |
| 20260509174338 | 16 | 61 | 1.6 | 1.6 | 0.00 | 0.00 | 0.00 | 79 | 1008.4 |
| 20260509173833 | 16 | 39 | 1.6 | 1.6 | 0.00 | 0.00 | 0.00 | 77 | 1008.1 |
| 20260509173329 | 16 | 35 | 0.0 | 1.6 | 0.00 | 0.00 | 0.00 | 75 | 1008.3 |
| 20260509172825 | 16 | 36 | 0.0 | 0.0 | 0.00 | 0.00 | 0.00 | 71 | 1008.2 |
| 20260509172322 | 17 | 50 | 0.0 | 1.6 | 0.00 | 0.00 | 0.00 | 70 | 1008.3 |
| 20260509171818 | 17 | 192 | 1.6 | 4.8 | 0.00 | 0.00 | 0.00 | 69 | 1008.4 |
| 20260509171314 | 16 | 45 | 1.6 | 3.2 | 0.00 | 0.00 | 0.00 | 70 | 1008.3 |
| 20260509170811 | 16 | 32 | 0.0 | 1.6 | 0.00 | 0.00 | 0.00 | 73 | 1008.1 |
| 20260509170306 | 17 | 37 | 1.6 | 1.6 | 0.00 | 0.00 | 0.00 | 73 | 1008.4 |
| 20260509165806 | 17 | 2 | 1.6 | 3.2 | 0.00 | 0.00 | 0.00 | 71 | 1008.3 |
| 20260509165301 | 17 | 222 | 3.2 | 4.8 | 0.00 | 0.00 | 0.00 | 70 | 1008.2 |
| 20260509164757 | 17 | 152 | 3.2 | 3.2 | 0.00 | 0.00 | 0.00 | 69 | 1008.3 |
| 20260509164253 | 17 | 98 | 1.6 | 1.6 | 0.00 | 0.00 | 0.00 | 70 | 1008.4 |